sensor_id;sensor_type;location;lat;lon;timestamp;pressure;altitude;pressure_sealevel;temperature;humidity
71964;BME280;59834;52.124;5.422;2023-05-03T00:02:09;103055.84;;;5.72;76.45
71964;BME280;59834;52.124;5.422;2023-05-03T00:04:36;103053.28;;;5.68;77.03
71964;BME280;59834;52.124;5.422;2023-05-03T00:07:03;103047.28;;;5.63;77.38
71964;BME280;59834;52.124;5.422;2023-05-03T00:09:29;103042.09;;;5.56;77.22
71964;BME280;59834;52.124;5.422;2023-05-03T00:11:56;103049.94;;;5.51;77.40
71964;BME280;59834;52.124;5.422;2023-05-03T00:14:22;103051.69;;;5.46;77.92
71964;BME280;59834;52.124;5.422;2023-05-03T00:16:49;103045.66;;;5.44;78.40
71964;BME280;59834;52.124;5.422;2023-05-03T00:19:16;103043.97;;;5.40;77.96
71964;BME280;59834;52.124;5.422;2023-05-03T00:21:56;103048.31;;;5.35;78.06
71964;BME280;59834;52.124;5.422;2023-05-03T00:24:23;103040.56;;;5.29;78.40
71964;BME280;59834;52.124;5.422;2023-05-03T00:26:50;103043.16;;;5.29;78.70
71964;BME280;59834;52.124;5.422;2023-05-03T00:29:16;103044.06;;;5.25;78.11
71964;BME280;59834;52.124;5.422;2023-05-03T00:31:46;103047.53;;;5.22;79.23
71964;BME280;59834;52.124;5.422;2023-05-03T00:34:12;103057.06;;;5.20;78.47
71964;BME280;59834;52.124;5.422;2023-05-03T00:36:42;103052.72;;;5.19;79.00
71964;BME280;59834;52.124;5.422;2023-05-03T00:39:09;103052.75;;;5.17;79.01
71964;BME280;59834;52.124;5.422;2023-05-03T00:41:38;103053.63;;;5.15;79.10
71964;BME280;59834;52.124;5.422;2023-05-03T00:44:05;103055.34;;;5.16;79.45
71964;BME280;59834;52.124;5.422;2023-05-03T00:46:35;103046.72;;;5.12;79.02
71964;BME280;59834;52.124;5.422;2023-05-03T00:49:02;103048.47;;;5.10;79.18
71964;BME280;59834;52.124;5.422;2023-05-03T00:51:29;103055.41;;;5.07;79.29
71964;BME280;59834;52.124;5.422;2023-05-03T00:53:56;103051.97;;;5.03;79.34
71964;BME280;59834;52.124;5.422;2023-05-03T00:56:23;103051.97;;;5.02;79.92
71964;BME280;59834;52.124;5.422;2023-05-03T00:58:50;103052.00;;;4.97;80.05
71964;BME280;59834;52.124;5.422;2023-05-03T01:01:17;103048.53;;;4.95;80.00
71964;BME280;59834;52.124;5.422;2023-05-03T01:03:44;103053.72;;;4.95;80.43
71964;BME280;59834;52.124;5.422;2023-05-03T01:09:33;103050.28;;;4.88;80.00
71964;BME280;59834;52.124;5.422;2023-05-03T01:15:14;103055.50;;;4.84;79.99
71964;BME280;59834;52.124;5.422;2023-05-03T01:17:49;103050.34;;;4.81;80.55
71964;BME280;59834;52.124;5.422;2023-05-03T01:20:21;103052.94;;;4.78;81.23
71964;BME280;59834;52.124;5.422;2023-05-03T01:23:10;103049.50;;;4.74;81.60
71964;BME280;59834;52.124;5.422;2023-05-03T01:25:39;103049.47;;;4.72;80.70
71964;BME280;59834;52.124;5.422;2023-05-03T01:28:07;103046.06;;;4.70;81.13
71964;BME280;59834;52.124;5.422;2023-05-03T01:30:35;103057.31;;;4.69;81.01
71964;BME280;59834;52.124;5.422;2023-05-03T01:33:32;103050.41;;;4.67;81.43
71964;BME280;59834;52.124;5.422;2023-05-03T01:36:30;103046.06;;;4.64;81.06
71964;BME280;59834;52.124;5.422;2023-05-03T01:39:07;103044.34;;;4.63;81.27
71964;BME280;59834;52.124;5.422;2023-05-03T01:41:37;103048.66;;;4.61;81.48
71964;BME280;59834;52.124;5.422;2023-05-03T01:44:06;103042.63;;;4.59;81.46
71964;BME280;59834;52.124;5.422;2023-05-03T01:46:41;103041.75;;;4.56;81.42
71964;BME280;59834;52.124;5.422;2023-05-03T01:49:07;103037.47;;;4.52;81.88
71964;BME280;59834;52.124;5.422;2023-05-03T01:51:34;103046.97;;;4.48;81.79
71964;BME280;59834;52.124;5.422;2023-05-03T01:54:01;103045.28;;;4.44;82.44
71964;BME280;59834;52.124;5.422;2023-05-03T01:56:28;103045.25;;;4.45;82.31
71964;BME280;59834;52.124;5.422;2023-05-03T01:58:56;103047.84;;;4.44;81.99
71964;BME280;59834;52.124;5.422;2023-05-03T02:01:22;103046.13;;;4.41;81.71
71964;BME280;59834;52.124;5.422;2023-05-03T02:03:49;103040.97;;;4.37;82.40
71964;BME280;59834;52.124;5.422;2023-05-03T02:06:16;103041.84;;;4.33;81.31
71964;BME280;59834;52.124;5.422;2023-05-03T02:08:42;103043.56;;;4.32;82.18
71964;BME280;59834;52.124;5.422;2023-05-03T02:11:12;103044.44;;;4.33;81.82
71964;BME280;59834;52.124;5.422;2023-05-03T02:13:39;103042.69;;;4.29;82.35
71964;BME280;59834;52.124;5.422;2023-05-03T02:16:07;103034.94;;;4.27;82.17
71964;BME280;59834;52.124;5.422;2023-05-03T02:18:36;103034.09;;;4.23;82.32
71964;BME280;59834;52.124;5.422;2023-05-03T02:21:03;103031.50;;;4.20;82.17
71964;BME280;59834;52.124;5.422;2023-05-03T02:23:30;103031.50;;;4.17;82.46
71964;BME280;59834;52.124;5.422;2023-05-03T02:26:06;103023.75;;;4.16;82.63
71964;BME280;59834;52.124;5.422;2023-05-03T02:28:33;103023.72;;;4.14;82.52
71964;BME280;59834;52.124;5.422;2023-05-03T02:31:09;103023.72;;;4.08;83.10
71964;BME280;59834;52.124;5.422;2023-05-03T02:33:36;103018.56;;;4.04;83.14
71964;BME280;59834;52.124;5.422;2023-05-03T02:36:17;103019.41;;;3.95;83.75
71964;BME280;59834;52.124;5.422;2023-05-03T02:38:43;103016.84;;;3.92;83.17
71964;BME280;59834;52.124;5.422;2023-05-03T02:41:10;103012.53;;;3.86;83.41
71964;BME280;59834;52.124;5.422;2023-05-03T02:43:36;103015.13;;;3.82;83.78
71964;BME280;59834;52.124;5.422;2023-05-03T02:46:03;103005.63;;;3.74;84.01
71964;BME280;59834;52.124;5.422;2023-05-03T02:48:30;103013.41;;;3.67;84.92
71964;BME280;59834;52.124;5.422;2023-05-03T02:50:57;103008.22;;;3.59;84.93
71964;BME280;59834;52.124;5.422;2023-05-03T02:53:23;103004.78;;;3.52;84.75
71964;BME280;59834;52.124;5.422;2023-05-03T02:55:50;103006.47;;;3.44;84.93
71964;BME280;59834;52.124;5.422;2023-05-03T02:58:16;103005.63;;;3.39;85.99
71964;BME280;59834;52.124;5.422;2023-05-03T03:00:43;103006.47;;;3.37;85.77
71964;BME280;59834;52.124;5.422;2023-05-03T03:03:10;103004.75;;;3.36;85.75
71964;BME280;59834;52.124;5.422;2023-05-03T03:05:39;103014.22;;;3.35;85.96
71964;BME280;59834;52.124;5.422;2023-05-03T03:08:05;103009.94;;;3.29;86.05
71964;BME280;59834;52.124;5.422;2023-05-03T03:10:32;103017.66;;;3.28;86.66
71964;BME280;59834;52.124;5.422;2023-05-03T03:12:59;103019.38;;;3.24;86.41
71964;BME280;59834;52.124;5.422;2023-05-03T03:15:26;103022.84;;;3.23;86.65
71964;BME280;59834;52.124;5.422;2023-05-03T03:17:52;103025.44;;;3.23;87.40
71964;BME280;59834;52.124;5.422;2023-05-03T03:20:23;103024.56;;;3.21;87.79
71964;BME280;59834;52.124;5.422;2023-05-03T03:22:49;103026.28;;;3.24;87.76
71964;BME280;59834;52.124;5.422;2023-05-03T03:25:16;103026.31;;;3.22;88.19
71964;BME280;59834;52.124;5.422;2023-05-03T03:27:43;103034.06;;;3.19;87.68
71964;BME280;59834;52.124;5.422;2023-05-03T03:30:09;103029.75;;;3.20;88.00
71964;BME280;59834;52.124;5.422;2023-05-03T03:32:37;103024.56;;;3.12;88.44
71964;BME280;59834;52.124;5.422;2023-05-03T03:35:04;103018.50;;;3.10;88.41
71964;BME280;59834;52.124;5.422;2023-05-03T03:37:30;103010.75;;;3.05;88.26
71964;BME280;59834;52.124;5.422;2023-05-03T03:39:57;103027.09;;;3.03;88.92
71964;BME280;59834;52.124;5.422;2023-05-03T03:42:24;103022.78;;;3.00;88.77
71964;BME280;59834;52.124;5.422;2023-05-03T03:44:51;103021.94;;;3.00;88.60
71964;BME280;59834;52.124;5.422;2023-05-03T03:47:17;103023.63;;;2.98;89.29
71964;BME280;59834;52.124;5.422;2023-05-03T03:49:44;103024.50;;;2.95;89.27
71964;BME280;59834;52.124;5.422;2023-05-03T03:52:11;103027.97;;;2.96;89.02
71964;BME280;59834;52.124;5.422;2023-05-03T03:54:38;103028.78;;;2.95;88.88
71964;BME280;59834;52.124;5.422;2023-05-03T03:57:04;103036.56;;;2.98;89.38
71964;BME280;59834;52.124;5.422;2023-05-03T03:59:31;103043.47;;;2.96;88.96
71964;BME280;59834;52.124;5.422;2023-05-03T04:02:00;103040.00;;;2.98;89.28
71964;BME280;59834;52.124;5.422;2023-05-03T04:04:27;103047.78;;;3.00;89.59
71964;BME280;59834;52.124;5.422;2023-05-03T04:06:54;103042.63;;;3.00;88.85
71964;BME280;59834;52.124;5.422;2023-05-03T04:09:20;103039.19;;;3.02;88.97
71964;BME280;59834;52.124;5.422;2023-05-03T04:11:47;103034.88;;;3.04;88.63
71964;BME280;59834;52.124;5.422;2023-05-03T04:14:14;103033.16;;;3.06;88.58
71964;BME280;59834;52.124;5.422;2023-05-03T04:16:41;103037.47;;;3.09;88.09
71964;BME280;59834;52.124;5.422;2023-05-03T04:19:07;103043.53;;;3.13;87.65
71964;BME280;59834;52.124;5.422;2023-05-03T04:21:34;103044.41;;;3.16;87.54
71964;BME280;59834;52.124;5.422;2023-05-03T04:24:02;103043.53;;;3.17;87.47
71964;BME280;59834;52.124;5.422;2023-05-03T04:26:32;103045.25;;;3.21;87.42
71964;BME280;59834;52.124;5.422;2023-05-03T04:28:58;103053.06;;;3.26;87.44
71964;BME280;59834;52.124;5.422;2023-05-03T04:31:25;103061.69;;;3.29;86.95
71964;BME280;59834;52.124;5.422;2023-05-03T04:33:53;103067.72;;;3.33;86.93
71964;BME280;59834;52.124;5.422;2023-05-03T04:36:20;103072.06;;;3.36;86.10
71964;BME280;59834;52.124;5.422;2023-05-03T04:38:51;103078.09;;;3.39;86.42
71964;BME280;59834;52.124;5.422;2023-05-03T04:41:18;103083.28;;;3.47;86.71
71964;BME280;59834;52.124;5.422;2023-05-03T04:43:53;103081.59;;;3.49;86.44
71964;BME280;59834;52.124;5.422;2023-05-03T04:46:19;103086.75;;;3.58;85.94
71964;BME280;59834;52.124;5.422;2023-05-03T04:49:18;103088.50;;;3.64;85.69
71964;BME280;59834;52.124;5.422;2023-05-03T04:52:01;103090.25;;;3.74;85.79
71964;BME280;59834;52.124;5.422;2023-05-03T04:54:42;103092.00;;;3.86;85.37
71964;BME280;59834;52.124;5.422;2023-05-03T04:57:19;103095.44;;;4.20;85.43
71964;BME280;59834;52.124;5.422;2023-05-03T04:59:46;103082.47;;;6.03;83.06
71964;BME280;59834;52.124;5.422;2023-05-03T05:02:14;103081.00;;;7.90;75.37
71964;BME280;59834;52.124;5.422;2023-05-03T05:05:06;103075.81;;;9.25;69.40
71964;BME280;59834;52.124;5.422;2023-05-03T05:07:50;103064.84;;;10.18;64.88
71964;BME280;59834;52.124;5.422;2023-05-03T05:10:16;103066.25;;;10.64;62.47
71964;BME280;59834;52.124;5.422;2023-05-03T05:12:48;103070.03;;;10.85;60.81
71964;BME280;59834;52.124;5.422;2023-05-03T05:15:17;103062.50;;;11.04;58.54
71964;BME280;59834;52.124;5.422;2023-05-03T05:17:51;103064.53;;;11.22;58.88
71964;BME280;59834;52.124;5.422;2023-05-03T05:20:26;103067.69;;;11.33;57.73
71964;BME280;59834;52.124;5.422;2023-05-03T05:23:39;103070.25;;;11.07;58.24
71964;BME280;59834;52.124;5.422;2023-05-03T05:30:29;103070.06;;;11.13;56.57
71964;BME280;59834;52.124;5.422;2023-05-03T05:33:08;103071.78;;;10.84;56.72
71964;BME280;59834;52.124;5.422;2023-05-03T05:36:26;103084.22;;;11.07;56.37
71964;BME280;59834;52.124;5.422;2023-05-03T05:38:53;103074.63;;;11.63;54.54
71964;BME280;59834;52.124;5.422;2023-05-03T05:41:38;103076.78;;;11.50;54.47
71964;BME280;59834;52.124;5.422;2023-05-03T05:45:21;103076.69;;;11.79;55.06
71964;BME280;59834;52.124;5.422;2023-05-03T05:48:02;103074.13;;;11.78;52.63
71964;BME280;59834;52.124;5.422;2023-05-03T05:50:53;103077.34;;;11.88;51.98
71964;BME280;59834;52.124;5.422;2023-05-03T05:53:21;103071.28;;;11.86;52.42
71964;BME280;59834;52.124;5.422;2023-05-03T05:56:13;103073.41;;;11.73;53.07
71964;BME280;59834;52.124;5.422;2023-05-03T05:58:54;103070.06;;;12.46;51.29
71964;BME280;59834;52.124;5.422;2023-05-03T06:02:14;103082.03;;;12.55;51.22
71964;BME280;59834;52.124;5.422;2023-05-03T06:05:06;103075.63;;;12.38;51.50
71964;BME280;59834;52.124;5.422;2023-05-03T06:07:53;103078.09;;;12.66;50.32
71964;BME280;59834;52.124;5.422;2023-05-03T06:10:32;103079.75;;;12.69;50.54
71964;BME280;59834;52.124;5.422;2023-05-03T06:13:08;103085.34;;;12.60;50.18
71964;BME280;59834;52.124;5.422;2023-05-03T06:15:41;103086.06;;;12.40;50.59
71964;BME280;59834;52.124;5.422;2023-05-03T06:18:11;103077.69;;;12.29;50.83
71964;BME280;59834;52.124;5.422;2023-05-03T06:20:40;103080.09;;;12.60;50.27
71964;BME280;59834;52.124;5.422;2023-05-03T06:23:11;103074.84;;;12.60;50.20
71964;BME280;59834;52.124;5.422;2023-05-03T06:25:41;103080.59;;;12.69;50.03
71964;BME280;59834;52.124;5.422;2023-05-03T06:28:11;103078.94;;;12.18;50.87
71964;BME280;59834;52.124;5.422;2023-05-03T06:31:05;103073.31;;;12.29;50.96
71964;BME280;59834;52.124;5.422;2023-05-03T06:34:06;103070.13;;;12.19;51.11
71964;BME280;59834;52.124;5.422;2023-05-03T06:36:35;103072.72;;;12.46;51.45
71964;BME280;59834;52.124;5.422;2023-05-03T06:39:04;103072.50;;;12.52;50.02
71964;BME280;59834;52.124;5.422;2023-05-03T06:41:33;103065.75;;;12.20;50.19
71964;BME280;59834;52.124;5.422;2023-05-03T06:44:03;103065.44;;;12.04;52.42
71964;BME280;59834;52.124;5.422;2023-05-03T06:47:08;103068.16;;;12.01;52.71
71964;BME280;59834;52.124;5.422;2023-05-03T06:50:06;103069.88;;;12.02;52.42
71964;BME280;59834;52.124;5.422;2023-05-03T06:52:33;103070.78;;;12.01;51.77
71964;BME280;59834;52.124;5.422;2023-05-03T06:55:00;103070.13;;;12.19;50.15
71964;BME280;59834;52.124;5.422;2023-05-03T06:57:26;103072.13;;;10.72;53.90
71964;BME280;59834;52.124;5.422;2023-05-03T06:59:54;103065.22;;;10.04;55.92
71964;BME280;59834;52.124;5.422;2023-05-03T07:02:30;103075.66;;;9.70;57.36
71964;BME280;59834;52.124;5.422;2023-05-03T07:04:56;103062.88;;;9.58;56.79
71964;BME280;59834;52.124;5.422;2023-05-03T07:07:25;103065.63;;;9.52;59.10
71964;BME280;59834;52.124;5.422;2023-05-03T07:09:55;103065.78;;;9.45;58.41
71964;BME280;59834;52.124;5.422;2023-05-03T07:12:54;103059.59;;;9.50;58.32
71964;BME280;59834;52.124;5.422;2023-05-03T07:15:23;103051.00;;;9.44;57.49
71964;BME280;59834;52.124;5.422;2023-05-03T07:17:53;103054.56;;;9.40;58.58
71964;BME280;59834;52.124;5.422;2023-05-03T07:20:27;103051.91;;;9.42;58.32
71964;BME280;59834;52.124;5.422;2023-05-03T07:22:54;103053.53;;;9.48;59.05
71964;BME280;59834;52.124;5.422;2023-05-03T07:25:21;103057.06;;;9.45;58.31
71964;BME280;59834;52.124;5.422;2023-05-03T07:27:49;103056.16;;;9.48;57.69
71964;BME280;59834;52.124;5.422;2023-05-03T07:30:27;103043.44;;;9.32;59.29
71964;BME280;59834;52.124;5.422;2023-05-03T07:33:00;103038.84;;;9.42;58.92
71964;BME280;59834;52.124;5.422;2023-05-03T07:35:35;103037.56;;;9.60;58.91
71964;BME280;59834;52.124;5.422;2023-05-03T07:38:08;103024.84;;;9.80;57.58
71964;BME280;59834;52.124;5.422;2023-05-03T07:40:35;103023.88;;;9.84;58.41
71964;BME280;59834;52.124;5.422;2023-05-03T07:43:32;103013.97;;;9.96;59.08
71964;BME280;59834;52.124;5.422;2023-05-03T07:46:08;103024.56;;;9.93;57.59
71964;BME280;59834;52.124;5.422;2023-05-03T07:48:52;103020.41;;;9.82;58.52
71964;BME280;59834;52.124;5.422;2023-05-03T07:51:26;103014.38;;;9.80;58.92
71964;BME280;59834;52.124;5.422;2023-05-03T07:54:36;103015.88;;;9.90;58.57
71964;BME280;59834;52.124;5.422;2023-05-03T07:57:26;103014.31;;;9.83;58.83
71964;BME280;59834;52.124;5.422;2023-05-03T07:59:59;103016.41;;;10.03;58.29
71964;BME280;59834;52.124;5.422;2023-05-03T08:02:26;103012.13;;;10.01;57.10
71964;BME280;59834;52.124;5.422;2023-05-03T08:05:09;103003.97;;;10.11;57.05
71964;BME280;59834;52.124;5.422;2023-05-03T08:11:45;103011.03;;;10.09;55.87
71964;BME280;59834;52.124;5.422;2023-05-03T08:14:27;102998.25;;;9.97;55.26
71964;BME280;59834;52.124;5.422;2023-05-03T08:16:54;103010.22;;;10.06;55.54
71964;BME280;59834;52.124;5.422;2023-05-03T08:19:22;103014.97;;;10.24;55.30
71964;BME280;59834;52.124;5.422;2023-05-03T08:21:49;103008.84;;;10.27;55.11
71964;BME280;59834;52.124;5.422;2023-05-03T08:24:17;103011.53;;;10.22;55.88
71964;BME280;59834;52.124;5.422;2023-05-03T08:26:46;103006.50;;;10.14;55.21
71964;BME280;59834;52.124;5.422;2023-05-03T08:29:16;102993.72;;;10.36;54.50
71964;BME280;59834;52.124;5.422;2023-05-03T08:31:43;102979.06;;;10.29;55.72
71964;BME280;59834;52.124;5.422;2023-05-03T08:34:11;102981.59;;;10.34;55.39
71964;BME280;59834;52.124;5.422;2023-05-03T08:36:38;102985.59;;;10.46;55.77
71964;BME280;59834;52.124;5.422;2023-05-03T08:39:05;102979.41;;;10.50;54.34
71964;BME280;59834;52.124;5.422;2023-05-03T08:41:42;102975.50;;;10.63;54.60
71964;BME280;59834;52.124;5.422;2023-05-03T08:44:11;102978.28;;;10.87;55.09
71964;BME280;59834;52.124;5.422;2023-05-03T08:46:37;102983.06;;;10.72;53.82
71964;BME280;59834;52.124;5.422;2023-05-03T08:49:05;102987.94;;;10.84;53.98
71964;BME280;59834;52.124;5.422;2023-05-03T08:51:39;102995.59;;;11.20;52.87
71964;BME280;59834;52.124;5.422;2023-05-03T08:54:08;103002.97;;;11.07;52.90
71964;BME280;59834;52.124;5.422;2023-05-03T08:56:40;103005.03;;;10.96;51.96
71964;BME280;59834;52.124;5.422;2023-05-03T08:59:11;102996.09;;;10.75;52.78
71964;BME280;59834;52.124;5.422;2023-05-03T09:01:39;102999.63;;;10.74;53.20
71964;BME280;59834;52.124;5.422;2023-05-03T09:04:08;103001.66;;;10.93;53.19
71964;BME280;59834;52.124;5.422;2023-05-03T09:06:35;103006.59;;;11.03;52.54
71964;BME280;59834;52.124;5.422;2023-05-03T09:09:07;103006.78;;;10.97;51.81
71964;BME280;59834;52.124;5.422;2023-05-03T09:11:36;103001.56;;;10.96;52.21
71964;BME280;59834;52.124;5.422;2023-05-03T09:14:11;103001.25;;;11.06;52.29
71964;BME280;59834;52.124;5.422;2023-05-03T09:16:39;103003.69;;;11.39;52.49
71964;BME280;59834;52.124;5.422;2023-05-03T09:19:07;103006.78;;;11.52;51.61
71964;BME280;59834;52.124;5.422;2023-05-03T09:21:41;103003.97;;;11.58;51.89
71964;BME280;59834;52.124;5.422;2023-05-03T09:26:38;103010.78;;;11.64;51.99
71964;BME280;59834;52.124;5.422;2023-05-03T09:29:06;103011.63;;;11.38;51.95
71964;BME280;59834;52.124;5.422;2023-05-03T09:31:34;103010.22;;;11.54;51.53
71964;BME280;59834;52.124;5.422;2023-05-03T09:34:20;103006.19;;;11.70;52.19
71964;BME280;59834;52.124;5.422;2023-05-03T09:36:47;103000.34;;;11.62;51.91
71964;BME280;59834;52.124;5.422;2023-05-03T09:39:17;103006.50;;;11.88;51.29
71964;BME280;59834;52.124;5.422;2023-05-03T09:41:44;103017.94;;;12.10;51.55
71964;BME280;59834;52.124;5.422;2023-05-03T09:44:11;103014.03;;;11.97;50.24
71964;BME280;59834;52.124;5.422;2023-05-03T09:46:38;103008.69;;;11.73;49.96
71964;BME280;59834;52.124;5.422;2023-05-03T09:49:05;103014.72;;;11.77;50.59
71964;BME280;59834;52.124;5.422;2023-05-03T09:51:32;103011.09;;;11.79;50.23
71964;BME280;59834;52.124;5.422;2023-05-03T09:54:01;103010.72;;;11.65;50.30
71964;BME280;59834;52.124;5.422;2023-05-03T09:56:28;103007.16;;;11.68;50.98
71964;BME280;59834;52.124;5.422;2023-05-03T09:58:56;103003.06;;;11.59;51.02
71964;BME280;59834;52.124;5.422;2023-05-03T10:01:24;103004.47;;;11.69;51.49
71964;BME280;59834;52.124;5.422;2023-05-03T10:03:51;102997.72;;;11.89;50.56
71964;BME280;59834;52.124;5.422;2023-05-03T10:06:30;102997.53;;;11.93;51.23
71964;BME280;59834;52.124;5.422;2023-05-03T10:09:16;102986.94;;;12.21;50.30
71964;BME280;59834;52.124;5.422;2023-05-03T10:11:57;102980.25;;;12.13;50.66
71964;BME280;59834;52.124;5.422;2023-05-03T10:14:26;102978.97;;;12.24;49.60
71964;BME280;59834;52.124;5.422;2023-05-03T10:17:00;102983.06;;;12.32;49.54
71964;BME280;59834;52.124;5.422;2023-05-03T10:19:34;102989.50;;;12.46;49.80
71964;BME280;59834;52.124;5.422;2023-05-03T10:22:05;102986.13;;;12.19;49.52
71964;BME280;59834;52.124;5.422;2023-05-03T10:24:33;102979.47;;;12.11;49.78
71964;BME280;59834;52.124;5.422;2023-05-03T10:27:00;102978.53;;;12.12;49.76
71964;BME280;59834;52.124;5.422;2023-05-03T10:32:03;102966.81;;;12.67;49.32
71964;BME280;59834;52.124;5.422;2023-05-03T10:34:32;102962.69;;;12.84;48.12
71964;BME280;59834;52.124;5.422;2023-05-03T10:37:08;102973.31;;;12.81;48.40
71964;BME280;59834;52.124;5.422;2023-05-03T10:39:35;102964.75;;;12.97;47.33
71964;BME280;59834;52.124;5.422;2023-05-03T10:42:04;102956.34;;;12.89;46.63
71964;BME280;59834;52.124;5.422;2023-05-03T10:44:38;102964.66;;;12.79;48.61
71964;BME280;59834;52.124;5.422;2023-05-03T10:47:11;102966.03;;;12.87;47.78
71964;BME280;59834;52.124;5.422;2023-05-03T10:49:40;102971.50;;;13.05;47.24
71964;BME280;59834;52.124;5.422;2023-05-03T10:52:46;102959.44;;;12.77;47.82
71964;BME280;59834;52.124;5.422;2023-05-03T10:55:16;102972.84;;;12.93;47.74
71964;BME280;59834;52.124;5.422;2023-05-03T10:57:53;102964.31;;;12.88;47.62
71964;BME280;59834;52.124;5.422;2023-05-03T11:03:19;102956.16;;;13.16;46.36
71964;BME280;59834;52.124;5.422;2023-05-03T11:05:51;102949.75;;;13.01;45.52
71964;BME280;59834;52.124;5.422;2023-05-03T11:08:21;102949.81;;;13.21;47.27
71964;BME280;59834;52.124;5.422;2023-05-03T11:10:55;102952.56;;;13.18;46.30
71964;BME280;59834;52.124;5.422;2023-05-03T11:13:24;102940.19;;;13.20;47.29
71964;BME280;59834;52.124;5.422;2023-05-03T11:15:54;102928.81;;;13.20;46.49
71964;BME280;59834;52.124;5.422;2023-05-03T11:18:23;102922.09;;;13.35;45.92
71964;BME280;59834;52.124;5.422;2023-05-03T11:20:51;102920.00;;;13.43;45.53
71964;BME280;59834;52.124;5.422;2023-05-03T11:23:24;102916.97;;;13.32;46.39
71964;BME280;59834;52.124;5.422;2023-05-03T11:25:52;102919.16;;;13.42;46.52
71964;BME280;59834;52.124;5.422;2023-05-03T11:28:18;102919.72;;;13.70;45.71
71964;BME280;59834;52.124;5.422;2023-05-03T11:30:45;102906.63;;;13.88;46.39
71964;BME280;59834;52.124;5.422;2023-05-03T11:33:12;102915.59;;;14.03;45.65
71964;BME280;59834;52.124;5.422;2023-05-03T11:35:39;102909.19;;;13.90;44.47
71964;BME280;59834;52.124;5.422;2023-05-03T11:38:08;102900.56;;;13.86;44.98
71964;BME280;59834;52.124;5.422;2023-05-03T11:40:36;102897.25;;;14.21;45.35
71964;BME280;59834;52.124;5.422;2023-05-03T11:43:05;102898.25;;;14.18;43.94
71964;BME280;59834;52.124;5.422;2023-05-03T11:45:42;102903.50;;;13.99;43.84
71964;BME280;59834;52.124;5.422;2023-05-03T11:48:12;102906.06;;;14.01;44.26
71964;BME280;59834;52.124;5.422;2023-05-03T11:51:23;102903.31;;;14.23;44.75
71964;BME280;59834;52.124;5.422;2023-05-03T11:58:00;102893.06;;;14.17;42.85
71964;BME280;59834;52.124;5.422;2023-05-03T12:00:36;102885.88;;;14.20;44.04
71964;BME280;59834;52.124;5.422;2023-05-03T12:06:48;102888.84;;;14.31;42.92
71964;BME280;59834;52.124;5.422;2023-05-03T12:09:26;102887.78;;;14.17;42.57
71964;BME280;59834;52.124;5.422;2023-05-03T12:12:05;102872.34;;;14.09;43.48
71964;BME280;59834;52.124;5.422;2023-05-03T12:19:03;102858.25;;;14.10;44.49
71964;BME280;59834;52.124;5.422;2023-05-03T12:22:18;102863.00;;;14.21;44.31
71964;BME280;59834;52.124;5.422;2023-05-03T12:25:55;102852.00;;;14.50;42.87
71964;BME280;59834;52.124;5.422;2023-05-03T12:29:12;102856.91;;;14.75;43.14
71964;BME280;59834;52.124;5.422;2023-05-03T12:31:53;102853.50;;;14.73;42.88
71964;BME280;59834;52.124;5.422;2023-05-03T12:34:20;102838.66;;;14.34;43.14
71964;BME280;59834;52.124;5.422;2023-05-03T12:37:01;102845.78;;;14.13;43.99
71964;BME280;59834;52.124;5.422;2023-05-03T12:39:30;102833.38;;;14.34;44.08
71964;BME280;59834;52.124;5.422;2023-05-03T12:41:58;102833.50;;;14.69;43.36
71964;BME280;59834;52.124;5.422;2023-05-03T12:44:33;102823.91;;;14.85;43.56
71964;BME280;59834;52.124;5.422;2023-05-03T12:47:02;102820.03;;;14.93;43.17
71964;BME280;59834;52.124;5.422;2023-05-03T12:49:30;102814.06;;;14.89;43.55
71964;BME280;59834;52.124;5.422;2023-05-03T12:51:57;102819.66;;;15.00;42.12
71964;BME280;59834;52.124;5.422;2023-05-03T12:54:46;102810.34;;;15.11;41.64
71964;BME280;59834;52.124;5.422;2023-05-03T12:57:15;102803.53;;;15.06;41.49
71964;BME280;59834;52.124;5.422;2023-05-03T12:59:49;102806.31;;;14.86;42.31
71964;BME280;59834;52.124;5.422;2023-05-03T13:02:26;102808.81;;;14.89;42.73
71964;BME280;59834;52.124;5.422;2023-05-03T13:04:55;102802.44;;;14.93;41.46
71964;BME280;59834;52.124;5.422;2023-05-03T13:07:27;102797.25;;;15.09;42.20
71964;BME280;59834;52.124;5.422;2023-05-03T13:09:57;102789.63;;;15.20;41.46
71964;BME280;59834;52.124;5.422;2023-05-03T13:12:27;102784.44;;;15.01;41.49
71964;BME280;59834;52.124;5.422;2023-05-03T13:14:53;102781.22;;;15.12;42.96
71964;BME280;59834;52.124;5.422;2023-05-03T13:17:21;102773.56;;;15.07;41.75
71964;BME280;59834;52.124;5.422;2023-05-03T13:19:50;102779.00;;;14.87;42.78
71964;BME280;59834;52.124;5.422;2023-05-03T13:22:17;102768.44;;;15.04;42.76
71964;BME280;59834;52.124;5.422;2023-05-03T13:24:45;102770.78;;;14.93;41.89
71964;BME280;59834;52.124;5.422;2023-05-03T13:27:13;102758.06;;;14.84;43.15
71964;BME280;59834;52.124;5.422;2023-05-03T13:29:40;102761.75;;;15.15;42.20
71964;BME280;59834;52.124;5.422;2023-05-03T13:32:07;102755.69;;;15.30;41.34
71964;BME280;59834;52.124;5.422;2023-05-03T13:34:35;102761.25;;;15.41;41.81
71964;BME280;59834;52.124;5.422;2023-05-03T13:37:02;102754.84;;;15.29;40.36
71964;BME280;59834;52.124;5.422;2023-05-03T13:39:30;102754.09;;;15.43;41.34
71964;BME280;59834;52.124;5.422;2023-05-03T13:41:57;102752.06;;;15.48;42.09
71964;BME280;59834;52.124;5.422;2023-05-03T13:44:24;102749.00;;;15.40;41.64
71964;BME280;59834;52.124;5.422;2023-05-03T13:46:55;102745.78;;;15.18;41.98
71964;BME280;59834;52.124;5.422;2023-05-03T13:49:26;102739.25;;;15.25;41.78
71964;BME280;59834;52.124;5.422;2023-05-03T13:51:53;102732.09;;;15.27;42.16
71964;BME280;59834;52.124;5.422;2023-05-03T13:54:20;102742.56;;;15.28;41.79
71964;BME280;59834;52.124;5.422;2023-05-03T13:56:58;102729.25;;;15.14;40.91
71964;BME280;59834;52.124;5.422;2023-05-03T13:59:30;102726.63;;;15.14;41.31